sensor_id;sensor_type;location;lat;lon;timestamp;temperature;humidity
5172;DHT22;2605;49.770;9.868;2022-12-18T00:00:44;-8.00;99.90
5172;DHT22;2605;49.770;9.868;2022-12-18T00:03:10;-8.00;99.90
5172;DHT22;2605;49.770;9.868;2022-12-18T00:05:35;-8.10;99.90
5172;DHT22;2605;49.770;9.868;2022-12-18T00:08:01;-8.00;99.90
5172;DHT22;2605;49.770;9.868;2022-12-18T00:10:28;-8.10;99.90
5172;DHT22;2605;49.770;9.868;2022-12-18T00:12:53;-8.10;99.90
5172;DHT22;2605;49.770;9.868;2022-12-18T00:15:19;-8.10;99.90
5172;DHT22;2605;49.770;9.868;2022-12-18T00:17:44;-8.20;99.90
5172;DHT22;2605;49.770;9.868;2022-12-18T00:20:10;-8.20;99.90
5172;DHT22;2605;49.770;9.868;2022-12-18T00:22:36;-8.20;99.90
5172;DHT22;2605;49.770;9.868;2022-12-18T00:25:02;-8.30;99.90
5172;DHT22;2605;49.770;9.868;2022-12-18T00:27:27;-8.30;99.90
5172;DHT22;2605;49.770;9.868;2022-12-18T00:29:53;-8.30;99.90
5172;DHT22;2605;49.770;9.868;2022-12-18T00:32:18;-8.30;99.90
5172;DHT22;2605;49.770;9.868;2022-12-18T00:34:44;-8.40;99.90
5172;DHT22;2605;49.770;9.868;2022-12-18T00:37:09;-8.30;99.90
5172;DHT22;2605;49.770;9.868;2022-12-18T00:39:35;-8.30;99.90
5172;DHT22;2605;49.770;9.868;2022-12-18T00:42:00;-8.30;99.90
5172;DHT22;2605;49.770;9.868;2022-12-18T00:44:44;-8.20;99.90
5172;DHT22;2605;49.770;9.868;2022-12-18T00:47:10;-8.20;99.90
5172;DHT22;2605;49.770;9.868;2022-12-18T00:49:35;-8.20;99.90
5172;DHT22;2605;49.770;9.868;2022-12-18T00:52:01;-8.20;99.90
5172;DHT22;2605;49.770;9.868;2022-12-18T00:54:26;-8.30;99.90
5172;DHT22;2605;49.770;9.868;2022-12-18T00:56:52;-8.30;99.90
5172;DHT22;2605;49.770;9.868;2022-12-18T00:59:18;-8.30;99.90
5172;DHT22;2605;49.770;9.868;2022-12-18T01:01:44;-8.30;99.90
5172;DHT22;2605;49.770;9.868;2022-12-18T01:04:10;-8.30;99.90
5172;DHT22;2605;49.770;9.868;2022-12-18T01:06:35;-8.30;99.90
5172;DHT22;2605;49.770;9.868;2022-12-18T01:09:01;-8.30;99.90
5172;DHT22;2605;49.770;9.868;2022-12-18T01:11:27;-8.30;99.90
5172;DHT22;2605;49.770;9.868;2022-12-18T01:13:53;-8.30;99.90
5172;DHT22;2605;49.770;9.868;2022-12-18T01:16:20;-8.30;99.90
5172;DHT22;2605;49.770;9.868;2022-12-18T01:18:45;-8.30;99.90
5172;DHT22;2605;49.770;9.868;2022-12-18T01:21:14;-8.20;99.90
5172;DHT22;2605;49.770;9.868;2022-12-18T01:23:40;-8.20;99.90
5172;DHT22;2605;49.770;9.868;2022-12-18T01:26:07;-8.20;99.90
5172;DHT22;2605;49.770;9.868;2022-12-18T01:28:33;-8.20;99.90
5172;DHT22;2605;49.770;9.868;2022-12-18T01:31:10;-8.20;99.90
5172;DHT22;2605;49.770;9.868;2022-12-18T01:33:35;-8.20;99.90
5172;DHT22;2605;49.770;9.868;2022-12-18T01:36:01;-8.30;99.90
5172;DHT22;2605;49.770;9.868;2022-12-18T01:38:28;-8.20;99.90
5172;DHT22;2605;49.770;9.868;2022-12-18T01:41:01;-8.30;99.90
5172;DHT22;2605;49.770;9.868;2022-12-18T01:46:12;-8.30;99.90
5172;DHT22;2605;49.770;9.868;2022-12-18T01:48:39;-8.30;99.90
5172;DHT22;2605;49.770;9.868;2022-12-18T01:51:06;-8.40;99.90
5172;DHT22;2605;49.770;9.868;2022-12-18T01:53:33;-8.40;99.90
5172;DHT22;2605;49.770;9.868;2022-12-18T01:55:59;-8.40;99.90
5172;DHT22;2605;49.770;9.868;2022-12-18T01:58:56;-8.40;99.90
5172;DHT22;2605;49.770;9.868;2022-12-18T02:01:20;-8.40;99.90
5172;DHT22;2605;49.770;9.868;2022-12-18T02:03:46;-8.40;99.90
5172;DHT22;2605;49.770;9.868;2022-12-18T02:06:16;-8.50;99.90
5172;DHT22;2605;49.770;9.868;2022-12-18T02:09:02;-8.50;99.90
5172;DHT22;2605;49.770;9.868;2022-12-18T02:15:05;-8.50;99.90
5172;DHT22;2605;49.770;9.868;2022-12-18T02:17:46;-8.50;99.90
5172;DHT22;2605;49.770;9.868;2022-12-18T02:20:25;-8.50;99.90
5172;DHT22;2605;49.770;9.868;2022-12-18T02:23:36;-8.60;99.90
5172;DHT22;2605;49.770;9.868;2022-12-18T02:26:21;-8.60;99.90
5172;DHT22;2605;49.770;9.868;2022-12-18T02:29:03;-8.60;99.90
5172;DHT22;2605;49.770;9.868;2022-12-18T02:31:36;-8.60;99.90
5172;DHT22;2605;49.770;9.868;2022-12-18T02:34:04;-8.60;99.90
5172;DHT22;2605;49.770;9.868;2022-12-18T02:36:33;-8.70;99.90
5172;DHT22;2605;49.770;9.868;2022-12-18T02:39:01;-8.70;99.90
5172;DHT22;2605;49.770;9.868;2022-12-18T02:41:28;-8.70;99.90
5172;DHT22;2605;49.770;9.868;2022-12-18T02:43:56;-8.80;99.90
5172;DHT22;2605;49.770;9.868;2022-12-18T02:46:35;-8.80;99.90
5172;DHT22;2605;49.770;9.868;2022-12-18T02:49:26;-8.80;99.90
5172;DHT22;2605;49.770;9.868;2022-12-18T02:51:58;-8.80;99.90
5172;DHT22;2605;49.770;9.868;2022-12-18T02:54:51;-8.80;99.90
5172;DHT22;2605;49.770;9.868;2022-12-18T03:00:30;-8.90;99.90
5172;DHT22;2605;49.770;9.868;2022-12-18T03:03:00;-9.00;99.90
5172;DHT22;2605;49.770;9.868;2022-12-18T03:05:33;-9.00;99.90
5172;DHT22;2605;49.770;9.868;2022-12-18T03:08:08;-9.00;99.90
5172;DHT22;2605;49.770;9.868;2022-12-18T03:10:39;-9.00;99.90
5172;DHT22;2605;49.770;9.868;2022-12-18T03:13:09;-9.00;99.90
5172;DHT22;2605;49.770;9.868;2022-12-18T03:15:47;-9.00;99.90
5172;DHT22;2605;49.770;9.868;2022-12-18T03:18:19;-9.00;99.90
5172;DHT22;2605;49.770;9.868;2022-12-18T03:20:47;-9.00;99.90
5172;DHT22;2605;49.770;9.868;2022-12-18T03:23:17;-9.00;99.90
5172;DHT22;2605;49.770;9.868;2022-12-18T03:25:45;-9.00;99.90
5172;DHT22;2605;49.770;9.868;2022-12-18T03:28:15;-9.00;99.90
5172;DHT22;2605;49.770;9.868;2022-12-18T03:30:44;-8.90;99.90
5172;DHT22;2605;49.770;9.868;2022-12-18T03:33:16;-9.00;99.90
5172;DHT22;2605;49.770;9.868;2022-12-18T03:35:44;-9.00;99.90
5172;DHT22;2605;49.770;9.868;2022-12-18T03:38:11;-9.00;99.90
5172;DHT22;2605;49.770;9.868;2022-12-18T03:43:33;-9.10;99.90
5172;DHT22;2605;49.770;9.868;2022-12-18T03:46:09;-9.10;99.90
5172;DHT22;2605;49.770;9.868;2022-12-18T03:48:42;-9.20;99.90
5172;DHT22;2605;49.770;9.868;2022-12-18T03:51:14;-9.20;99.90
5172;DHT22;2605;49.770;9.868;2022-12-18T03:53:52;-9.20;99.90
5172;DHT22;2605;49.770;9.868;2022-12-18T03:56:21;-9.20;99.90
5172;DHT22;2605;49.770;9.868;2022-12-18T03:58:50;-9.30;99.90
5172;DHT22;2605;49.770;9.868;2022-12-18T04:01:18;-9.30;99.90
5172;DHT22;2605;49.770;9.868;2022-12-18T04:03:47;-9.30;99.90
5172;DHT22;2605;49.770;9.868;2022-12-18T04:06:14;-9.30;99.90
5172;DHT22;2605;49.770;9.868;2022-12-18T04:08:41;-9.40;99.90
5172;DHT22;2605;49.770;9.868;2022-12-18T04:11:06;-9.40;99.90
5172;DHT22;2605;49.770;9.868;2022-12-18T04:13:35;-9.40;99.90
5172;DHT22;2605;49.770;9.868;2022-12-18T04:16:00;-9.50;99.90
5172;DHT22;2605;49.770;9.868;2022-12-18T04:18:26;-9.50;99.90
5172;DHT22;2605;49.770;9.868;2022-12-18T04:20:52;-9.40;99.90
5172;DHT22;2605;49.770;9.868;2022-12-18T04:23:18;-9.40;99.90
5172;DHT22;2605;49.770;9.868;2022-12-18T04:25:43;-9.50;99.90
5172;DHT22;2605;49.770;9.868;2022-12-18T04:28:09;-9.40;99.90
5172;DHT22;2605;49.770;9.868;2022-12-18T04:30:34;-9.50;99.90
5172;DHT22;2605;49.770;9.868;2022-12-18T04:33:00;-9.40;99.90
5172;DHT22;2605;49.770;9.868;2022-12-18T04:35:25;-9.30;99.90
5172;DHT22;2605;49.770;9.868;2022-12-18T04:37:51;-9.30;99.90
5172;DHT22;2605;49.770;9.868;2022-12-18T04:40:16;-9.30;99.90
5172;DHT22;2605;49.770;9.868;2022-12-18T04:42:42;-9.30;99.90
5172;DHT22;2605;49.770;9.868;2022-12-18T04:45:08;-9.20;99.90
5172;DHT22;2605;49.770;9.868;2022-12-18T04:47:34;-9.20;99.90
5172;DHT22;2605;49.770;9.868;2022-12-18T04:49:59;-9.20;99.90
5172;DHT22;2605;49.770;9.868;2022-12-18T04:52:25;-9.20;99.90
5172;DHT22;2605;49.770;9.868;2022-12-18T04:54:51;-9.20;99.90
5172;DHT22;2605;49.770;9.868;2022-12-18T04:57:16;-9.20;99.90
5172;DHT22;2605;49.770;9.868;2022-12-18T04:59:44;-9.20;99.90
5172;DHT22;2605;49.770;9.868;2022-12-18T05:02:09;-9.20;99.90
5172;DHT22;2605;49.770;9.868;2022-12-18T05:04:35;-9.20;99.90
5172;DHT22;2605;49.770;9.868;2022-12-18T05:07:01;-9.10;99.90
5172;DHT22;2605;49.770;9.868;2022-12-18T05:09:26;-9.20;99.90
5172;DHT22;2605;49.770;9.868;2022-12-18T05:11:52;-9.10;99.90
5172;DHT22;2605;49.770;9.868;2022-12-18T05:14:17;-9.20;99.90
5172;DHT22;2605;49.770;9.868;2022-12-18T05:16:43;-9.20;99.90
5172;DHT22;2605;49.770;9.868;2022-12-18T05:19:08;-9.10;99.90
5172;DHT22;2605;49.770;9.868;2022-12-18T05:21:34;-9.20;99.90
5172;DHT22;2605;49.770;9.868;2022-12-18T05:24:00;-9.20;99.90
5172;DHT22;2605;49.770;9.868;2022-12-18T05:26:25;-9.20;99.90
5172;DHT22;2605;49.770;9.868;2022-12-18T05:28:51;-9.20;99.90
5172;DHT22;2605;49.770;9.868;2022-12-18T05:31:16;-9.20;99.90
5172;DHT22;2605;49.770;9.868;2022-12-18T05:33:42;-9.30;99.90
5172;DHT22;2605;49.770;9.868;2022-12-18T05:36:08;-9.30;99.90
5172;DHT22;2605;49.770;9.868;2022-12-18T05:38:36;-9.30;99.90
5172;DHT22;2605;49.770;9.868;2022-12-18T05:41:02;-9.40;99.90
5172;DHT22;2605;49.770;9.868;2022-12-18T05:43:28;-9.40;99.90
5172;DHT22;2605;49.770;9.868;2022-12-18T05:45:54;-9.50;99.90
5172;DHT22;2605;49.770;9.868;2022-12-18T05:48:20;-9.50;99.90
5172;DHT22;2605;49.770;9.868;2022-12-18T05:50:47;-9.50;99.90
5172;DHT22;2605;49.770;9.868;2022-12-18T05:53:14;-9.60;99.90
5172;DHT22;2605;49.770;9.868;2022-12-18T05:55:41;-9.60;99.90
5172;DHT22;2605;49.770;9.868;2022-12-18T05:58:08;-9.50;99.90
5172;DHT22;2605;49.770;9.868;2022-12-18T06:00:37;-9.40;99.90
5172;DHT22;2605;49.770;9.868;2022-12-18T06:03:05;-9.40;99.90
5172;DHT22;2605;49.770;9.868;2022-12-18T06:05:38;-9.30;99.90
5172;DHT22;2605;49.770;9.868;2022-12-18T06:08:04;-9.30;99.90
5172;DHT22;2605;49.770;9.868;2022-12-18T06:10:30;-9.30;99.90
5172;DHT22;2605;49.770;9.868;2022-12-18T06:12:55;-9.30;99.90
5172;DHT22;2605;49.770;9.868;2022-12-18T06:15:21;-9.30;99.90
5172;DHT22;2605;49.770;9.868;2022-12-18T06:17:46;-9.30;99.90
5172;DHT22;2605;49.770;9.868;2022-12-18T06:20:15;-9.40;99.90
5172;DHT22;2605;49.770;9.868;2022-12-18T06:22:40;-9.40;99.90
5172;DHT22;2605;49.770;9.868;2022-12-18T06:25:06;-9.40;99.90
5172;DHT22;2605;49.770;9.868;2022-12-18T06:27:32;-9.40;99.90
5172;DHT22;2605;49.770;9.868;2022-12-18T06:29:59;-9.40;99.90
5172;DHT22;2605;49.770;9.868;2022-12-18T06:32:25;-9.50;99.90
5172;DHT22;2605;49.770;9.868;2022-12-18T06:34:50;-9.40;99.90
5172;DHT22;2605;49.770;9.868;2022-12-18T06:37:16;-9.50;99.90
5172;DHT22;2605;49.770;9.868;2022-12-18T06:39:41;-9.50;99.90
5172;DHT22;2605;49.770;9.868;2022-12-18T06:42:07;-9.50;99.90
5172;DHT22;2605;49.770;9.868;2022-12-18T06:44:32;-9.40;99.90
5172;DHT22;2605;49.770;9.868;2022-12-18T06:46:57;-9.40;99.90
5172;DHT22;2605;49.770;9.868;2022-12-18T06:49:23;-9.30;99.90
5172;DHT22;2605;49.770;9.868;2022-12-18T06:51:48;-9.30;99.90
5172;DHT22;2605;49.770;9.868;2022-12-18T06:54:14;-9.20;99.90
5172;DHT22;2605;49.770;9.868;2022-12-18T06:56:39;-9.10;99.90
5172;DHT22;2605;49.770;9.868;2022-12-18T06:59:06;-9.00;99.90
5172;DHT22;2605;49.770;9.868;2022-12-18T07:01:31;-8.90;99.90
5172;DHT22;2605;49.770;9.868;2022-12-18T07:03:57;-9.00;99.90
5172;DHT22;2605;49.770;9.868;2022-12-18T07:06:25;-8.90;99.90
5172;DHT22;2605;49.770;9.868;2022-12-18T07:08:52;-8.90;99.90
5172;DHT22;2605;49.770;9.868;2022-12-18T07:11:18;-8.80;99.90
5172;DHT22;2605;49.770;9.868;2022-12-18T07:13:44;-8.70;99.90
5172;DHT22;2605;49.770;9.868;2022-12-18T07:16:15;-8.70;99.90
5172;DHT22;2605;49.770;9.868;2022-12-18T07:18:41;-8.60;99.90
5172;DHT22;2605;49.770;9.868;2022-12-18T07:21:08;-8.60;99.90
5172;DHT22;2605;49.770;9.868;2022-12-18T07:23:35;-8.50;99.90
5172;DHT22;2605;49.770;9.868;2022-12-18T07:26:05;-8.40;99.90
5172;DHT22;2605;49.770;9.868;2022-12-18T07:28:32;-8.30;99.90
5172;DHT22;2605;49.770;9.868;2022-12-18T07:31:02;-8.30;99.90
5172;DHT22;2605;49.770;9.868;2022-12-18T07:33:28;-8.30;99.90
5172;DHT22;2605;49.770;9.868;2022-12-18T07:35:54;-8.20;99.90
5172;DHT22;2605;49.770;9.868;2022-12-18T07:38:19;-8.00;99.90
5172;DHT22;2605;49.770;9.868;2022-12-18T07:40:45;-8.10;99.90
5172;DHT22;2605;49.770;9.868;2022-12-18T07:43:10;-8.00;99.90
5172;DHT22;2605;49.770;9.868;2022-12-18T07:45:36;-7.90;99.90
5172;DHT22;2605;49.770;9.868;2022-12-18T07:48:01;-7.80;99.90
5172;DHT22;2605;49.770;9.868;2022-12-18T07:50:27;-7.70;99.90
5172;DHT22;2605;49.770;9.868;2022-12-18T07:52:52;-7.60;99.90
5172;DHT22;2605;49.770;9.868;2022-12-18T07:55:18;-7.60;99.90
5172;DHT22;2605;49.770;9.868;2022-12-18T07:57:43;-7.60;99.90
5172;DHT22;2605;49.770;9.868;2022-12-18T08:00:09;-7.40;99.90
5172;DHT22;2605;49.770;9.868;2022-12-18T08:02:35;-7.40;99.90
5172;DHT22;2605;49.770;9.868;2022-12-18T08:05:01;-7.30;99.90
5172;DHT22;2605;49.770;9.868;2022-12-18T08:07:26;-7.20;99.90
5172;DHT22;2605;49.770;9.868;2022-12-18T08:09:52;-7.20;99.90
5172;DHT22;2605;49.770;9.868;2022-12-18T08:12:17;-7.10;99.90
5172;DHT22;2605;49.770;9.868;2022-12-18T08:14:43;-6.90;99.90
5172;DHT22;2605;49.770;9.868;2022-12-18T08:17:08;-6.90;99.90
5172;DHT22;2605;49.770;9.868;2022-12-18T08:19:34;-6.80;99.90
5172;DHT22;2605;49.770;9.868;2022-12-18T08:21:59;-6.70;99.90
5172;DHT22;2605;49.770;9.868;2022-12-18T08:24:25;-6.70;99.90
5172;DHT22;2605;49.770;9.868;2022-12-18T08:26:53;-6.60;99.90
5172;DHT22;2605;49.770;9.868;2022-12-18T08:29:19;-6.50;99.90
5172;DHT22;2605;49.770;9.868;2022-12-18T08:31:45;-6.40;99.90
5172;DHT22;2605;49.770;9.868;2022-12-18T08:34:10;-6.40;99.90
5172;DHT22;2605;49.770;9.868;2022-12-18T08:36:36;-6.30;99.90
5172;DHT22;2605;49.770;9.868;2022-12-18T08:39:01;-6.20;99.90
5172;DHT22;2605;49.770;9.868;2022-12-18T08:41:27;-6.10;99.90
5172;DHT22;2605;49.770;9.868;2022-12-18T08:43:55;-6.00;99.90
5172;DHT22;2605;49.770;9.868;2022-12-18T08:46:41;-5.90;99.90
5172;DHT22;2605;49.770;9.868;2022-12-18T08:49:08;-5.80;99.90
5172;DHT22;2605;49.770;9.868;2022-12-18T08:51:35;-5.70;99.90
5172;DHT22;2605;49.770;9.868;2022-12-18T08:54:01;-5.70;99.90
5172;DHT22;2605;49.770;9.868;2022-12-18T08:56:30;-5.60;99.90
5172;DHT22;2605;49.770;9.868;2022-12-18T08:58:56;-5.60;99.90
5172;DHT22;2605;49.770;9.868;2022-12-18T09:01:22;-5.50;99.90
5172;DHT22;2605;49.770;9.868;2022-12-18T09:03:50;-5.60;99.90
5172;DHT22;2605;49.770;9.868;2022-12-18T09:06:18;-5.50;99.90
5172;DHT22;2605;49.770;9.868;2022-12-18T09:08:45;-5.40;99.90
5172;DHT22;2605;49.770;9.868;2022-12-18T09:11:25;-5.40;99.90
5172;DHT22;2605;49.770;9.868;2022-12-18T09:13:52;-5.30;99.90
5172;DHT22;2605;49.770;9.868;2022-12-18T09:16:18;-5.20;99.90
5172;DHT22;2605;49.770;9.868;2022-12-18T09:18:45;-5.10;99.90
5172;DHT22;2605;49.770;9.868;2022-12-18T09:21:12;-5.10;99.90
5172;DHT22;2605;49.770;9.868;2022-12-18T09:23:38;-5.10;99.90
5172;DHT22;2605;49.770;9.868;2022-12-18T09:26:04;-5.00;99.90
5172;DHT22;2605;49.770;9.868;2022-12-18T09:28:30;-4.90;99.90
5172;DHT22;2605;49.770;9.868;2022-12-18T09:30:55;-4.80;99.90
5172;DHT22;2605;49.770;9.868;2022-12-18T09:33:21;-4.80;99.90
5172;DHT22;2605;49.770;9.868;2022-12-18T09:35:46;-4.70;99.90
5172;DHT22;2605;49.770;9.868;2022-12-18T09:38:15;-4.70;99.90
5172;DHT22;2605;49.770;9.868;2022-12-18T09:40:43;-4.70;99.90
5172;DHT22;2605;49.770;9.868;2022-12-18T09:43:17;-4.50;99.90
5172;DHT22;2605;49.770;9.868;2022-12-18T09:45:51;-4.40;99.90
5172;DHT22;2605;49.770;9.868;2022-12-18T09:48:34;-4.30;99.90
5172;DHT22;2605;49.770;9.868;2022-12-18T09:51:05;-4.20;99.90
5172;DHT22;2605;49.770;9.868;2022-12-18T09:53:41;-4.10;99.90
5172;DHT22;2605;49.770;9.868;2022-12-18T09:56:15;-4.00;99.90
5172;DHT22;2605;49.770;9.868;2022-12-18T09:58:48;-3.80;99.90
5172;DHT22;2605;49.770;9.868;2022-12-18T10:01:20;-3.70;99.90
5172;DHT22;2605;49.770;9.868;2022-12-18T10:03:47;-3.80;99.90
5172;DHT22;2605;49.770;9.868;2022-12-18T10:07:02;-3.70;99.90
5172;DHT22;2605;49.770;9.868;2022-12-18T10:09:24;-3.70;99.90
5172;DHT22;2605;49.770;9.868;2022-12-18T10:12:21;-3.60;99.90
5172;DHT22;2605;49.770;9.868;2022-12-18T10:14:57;-3.50;99.90
5172;DHT22;2605;49.770;9.868;2022-12-18T10:17:51;-3.40;99.90
5172;DHT22;2605;49.770;9.868;2022-12-18T10:20:30;-3.30;99.90
5172;DHT22;2605;49.770;9.868;2022-12-18T10:23:09;-3.40;99.90
5172;DHT22;2605;49.770;9.868;2022-12-18T10:26:02;-3.30;99.90
5172;DHT22;2605;49.770;9.868;2022-12-18T10:28:30;-3.00;99.90
5172;DHT22;2605;49.770;9.868;2022-12-18T10:30:57;-2.90;99.90
5172;DHT22;2605;49.770;9.868;2022-12-18T10:33:27;-2.90;99.90
5172;DHT22;2605;49.770;9.868;2022-12-18T10:35:53;-2.90;99.90
5172;DHT22;2605;49.770;9.868;2022-12-18T10:43:23;-2.70;99.90
5172;DHT22;2605;49.770;9.868;2022-12-18T10:48:40;-2.60;99.90
5172;DHT22;2605;49.770;9.868;2022-12-18T10:51:07;-2.50;99.90
5172;DHT22;2605;49.770;9.868;2022-12-18T10:53:35;-2.60;99.90
5172;DHT22;2605;49.770;9.868;2022-12-18T10:56:02;-2.50;99.90
5172;DHT22;2605;49.770;9.868;2022-12-18T10:58:34;-2.40;99.90
5172;DHT22;2605;49.770;9.868;2022-12-18T11:01:07;-2.30;99.90
5172;DHT22;2605;49.770;9.868;2022-12-18T11:06:13;-2.20;99.90
5172;DHT22;2605;49.770;9.868;2022-12-18T11:08:40;-2.10;99.90
5172;DHT22;2605;49.770;9.868;2022-12-18T11:11:16;-2.00;99.90
5172;DHT22;2605;49.770;9.868;2022-12-18T11:16:19;-1.90;99.90
5172;DHT22;2605;49.770;9.868;2022-12-18T11:18:45;-1.90;99.90
5172;DHT22;2605;49.770;9.868;2022-12-18T11:21:11;-1.80;99.90
5172;DHT22;2605;49.770;9.868;2022-12-18T11:23:52;-1.90;99.90
5172;DHT22;2605;49.770;9.868;2022-12-18T11:26:19;-1.80;99.90
5172;DHT22;2605;49.770;9.868;2022-12-18T11:29:09;-1.90;99.90
5172;DHT22;2605;49.770;9.868;2022-12-18T11:31:35;-1.90;99.90
5172;DHT22;2605;49.770;9.868;2022-12-18T11:34:15;-1.80;99.90
5172;DHT22;2605;49.770;9.868;2022-12-18T11:36:45;-1.70;99.90
5172;DHT22;2605;49.770;9.868;2022-12-18T11:39:37;-1.70;99.90
5172;DHT22;2605;49.770;9.868;2022-12-18T11:44:50;-1.70;99.90
5172;DHT22;2605;49.770;9.868;2022-12-18T11:50:23;-1.50;99.90
5172;DHT22;2605;49.770;9.868;2022-12-18T11:52:49;-1.50;99.90
5172;DHT22;2605;49.770;9.868;2022-12-18T11:55:43;-1.40;99.90
5172;DHT22;2605;49.770;9.868;2022-12-18T12:03:47;-1.30;99.90
5172;DHT22;2605;49.770;9.868;2022-12-18T12:06:32;-1.30;99.90
5172;DHT22;2605;49.770;9.868;2022-12-18T12:09:33;-1.40;99.90
5172;DHT22;2605;49.770;9.868;2022-12-18T12:17:40;-1.10;99.90
5172;DHT22;2605;49.770;9.868;2022-12-18T12:20:20;-1.00;99.90
5172;DHT22;2605;49.770;9.868;2022-12-18T12:25:52;-0.90;99.90
5172;DHT22;2605;49.770;9.868;2022-12-18T12:39:28;-0.90;99.90
5172;DHT22;2605;49.770;9.868;2022-12-18T12:41:56;-0.70;99.90
5172;DHT22;2605;49.770;9.868;2022-12-18T12:44:51;-0.70;99.90
5172;DHT22;2605;49.770;9.868;2022-12-18T12:47:31;-0.60;99.90
5172;DHT22;2605;49.770;9.868;2022-12-18T12:49:59;-0.70;99.90
5172;DHT22;2605;49.770;9.868;2022-12-18T12:52:39;-0.80;99.90
5172;DHT22;2605;49.770;9.868;2022-12-18T12:55:21;-0.80;99.90
5172;DHT22;2605;49.770;9.868;2022-12-18T13:00:25;-0.60;99.90
5172;DHT22;2605;49.770;9.868;2022-12-18T13:02:54;-0.70;99.90
5172;DHT22;2605;49.770;9.868;2022-12-18T13:05:45;-0.80;99.90
5172;DHT22;2605;49.770;9.868;2022-12-18T13:08:23;-0.70;99.90
5172;DHT22;2605;49.770;9.868;2022-12-18T13:10:49;-0.60;99.90
5172;DHT22;2605;49.770;9.868;2022-12-18T13:13:16;-0.60;99.90
5172;DHT22;2605;49.770;9.868;2022-12-18T13:20:43;-1.00;99.90
5172;DHT22;2605;49.770;9.868;2022-12-18T13:31:14;-0.90;99.90
5172;DHT22;2605;49.770;9.868;2022-12-18T13:33:41;-0.90;99.90
5172;DHT22;2605;49.770;9.868;2022-12-18T13:38:42;-0.60;99.90
5172;DHT22;2605;49.770;9.868;2022-12-18T13:43:53;-0.70;99.90
5172;DHT22;2605;49.770;9.868;2022-12-18T13:46:30;-0.90;99.90
5172;DHT22;2605;49.770;9.868;2022-12-18T13:49:03;-0.80;99.90
5172;DHT22;2605;49.770;9.868;2022-12-18T13:51:33;-0.80;99.90
5172;DHT22;2605;49.770;9.868;2022-12-18T13:54:01;-1.00;99.90
5172;DHT22;2605;49.770;9.868;2022-12-18T13:56:30;-1.10;99.90
5172;DHT22;2605;49.770;9.868;2022-12-18T13:59:21;-1.10;99.90
5172;DHT22;2605;49.770;9.868;2022-12-18T14:02:00;-1.30;99.90
5172;DHT22;2605;49.770;9.868;2022-12-18T14:04:46;-1.40;99.90
5172;DHT22;2605;49.770;9.868;2022-12-18T14:07:19;-1.30;99.90
5172;DHT22;2605;49.770;9.868;2022-12-18T14:09:51;-1.30;99.90
5172;DHT22;2605;49.770;9.868;2022-12-18T14:12:21;-1.20;99.90
5172;DHT22;2605;49.770;9.868;2022-12-18T14:15:51;-1.20;99.90
5172;DHT22;2605;49.770;9.868;2022-12-18T14:20:26;-1.20;99.90
5172;DHT22;2605;49.770;9.868;2022-12-18T14:22:55;-1.20;99.90
5172;DHT22;2605;49.770;9.868;2022-12-18T14:25:24;-1.30;99.90
5172;DHT22;2605;49.770;9.868;2022-12-18T14:30:37;-1.40;99.90
5172;DHT22;2605;49.770;9.868;2022-12-18T14:35:34;-1.30;99.90
5172;DHT22;2605;49.770;9.868;2022-12-18T14:38:20;-1.30;99.90
5172;DHT22;2605;49.770;9.868;2022-12-18T14:40:49;-1.40;99.90
5172;DHT22;2605;49.770;9.868;2022-12-18T14:43:17;-1.40;99.90
5172;DHT22;2605;49.770;9.868;2022-12-18T14:45:44;-1.40;99.90
5172;DHT22;2605;49.770;9.868;2022-12-18T14:56:00;-1.70;99.90
5172;DHT22;2605;49.770;9.868;2022-12-18T14:58:25;-1.80;99.90
5172;DHT22;2605;49.770;9.868;2022-12-18T15:00:51;-1.90;99.90
5172;DHT22;2605;49.770;9.868;2022-12-18T15:03:21;-1.90;99.90
5172;DHT22;2605;49.770;9.868;2022-12-18T15:05:47;-2.00;99.90
5172;DHT22;2605;49.770;9.868;2022-12-18T15:08:36;-2.00;99.90
5172;DHT22;2605;49.770;9.868;2022-12-18T15:11:02;-2.10;99.90
5172;DHT22;2605;49.770;9.868;2022-12-18T15:13:28;-2.20;99.90
5172;DHT22;2605;49.770;9.868;2022-12-18T15:15:56;-2.30;99.90
5172;DHT22;2605;49.770;9.868;2022-12-18T15:18:31;-2.30;99.90
5172;DHT22;2605;49.770;9.868;2022-12-18T15:20:59;-2.30;99.90
5172;DHT22;2605;49.770;9.868;2022-12-18T15:23:49;-2.40;99.90
5172;DHT22;2605;49.770;9.868;2022-12-18T15:26:18;-2.40;99.90
5172;DHT22;2605;49.770;9.868;2022-12-18T15:28:49;-2.40;99.90
5172;DHT22;2605;49.770;9.868;2022-12-18T15:34:00;-2.40;99.90
5172;DHT22;2605;49.770;9.868;2022-12-18T15:36:26;-2.40;99.90
5172;DHT22;2605;49.770;9.868;2022-12-18T15:38:53;-2.40;99.90
5172;DHT22;2605;49.770;9.868;2022-12-18T15:41:21;-2.50;99.90
5172;DHT22;2605;49.770;9.868;2022-12-18T15:43:48;-2.40;99.90
5172;DHT22;2605;49.770;9.868;2022-12-18T15:46:24;-2.50;99.90
5172;DHT22;2605;49.770;9.868;2022-12-18T15:48:55;-2.40;99.90
5172;DHT22;2605;49.770;9.868;2022-12-18T15:51:22;-2.50;99.90
5172;DHT22;2605;49.770;9.868;2022-12-18T15:53:51;-2.50;99.90
5172;DHT22;2605;49.770;9.868;2022-12-18T15:56:18;-2.50;99.90
5172;DHT22;2605;49.770;9.868;2022-12-18T15:59:04;-2.50;99.90
5172;DHT22;2605;49.770;9.868;2022-12-18T16:01:30;-2.60;99.90
5172;DHT22;2605;49.770;9.868;2022-12-18T16:03:58;-2.60;99.90
5172;DHT22;2605;49.770;9.868;2022-12-18T16:06:24;-2.60;99.90
5172;DHT22;2605;49.770;9.868;2022-12-18T16:08:50;-2.60;99.90
5172;DHT22;2605;49.770;9.868;2022-12-18T16:14:18;-2.70;99.90
5172;DHT22;2605;49.770;9.868;2022-12-18T16:16:50;-2.80;99.90
5172;DHT22;2605;49.770;9.868;2022-12-18T16:19:17;-2.80;99.90
5172;DHT22;2605;49.770;9.868;2022-12-18T16:21:43;-2.70;99.90
5172;DHT22;2605;49.770;9.868;2022-12-18T16:24:16;-2.70;99.90
5172;DHT22;2605;49.770;9.868;2022-12-18T16:26:43;-2.80;99.90
5172;DHT22;2605;49.770;9.868;2022-12-18T16:29:09;-2.80;99.90
5172;DHT22;2605;49.770;9.868;2022-12-18T16:31:35;-2.80;99.90
5172;DHT22;2605;49.770;9.868;2022-12-18T16:34:20;-2.80;99.90
5172;DHT22;2605;49.770;9.868;2022-12-18T16:36:49;-2.80;99.90
5172;DHT22;2605;49.770;9.868;2022-12-18T16:39:15;-2.90;99.90
5172;DHT22;2605;49.770;9.868;2022-12-18T16:41:41;-2.90;99.90
5172;DHT22;2605;49.770;9.868;2022-12-18T16:44:07;-3.00;99.90
5172;DHT22;2605;49.770;9.868;2022-12-18T16:46:32;-3.00;99.90
5172;DHT22;2605;49.770;9.868;2022-12-18T16:48:59;-3.10;99.90
5172;DHT22;2605;49.770;9.868;2022-12-18T16:51:26;-3.10;99.90
5172;DHT22;2605;49.770;9.868;2022-12-18T16:53:53;-3.10;99.90
5172;DHT22;2605;49.770;9.868;2022-12-18T16:56:19;-3.20;99.90
5172;DHT22;2605;49.770;9.868;2022-12-18T16:58:50;-3.20;99.90
5172;DHT22;2605;49.770;9.868;2022-12-18T17:01:15;-3.20;99.90
5172;DHT22;2605;49.770;9.868;2022-12-18T17:03:41;-3.20;99.90
5172;DHT22;2605;49.770;9.868;2022-12-18T17:06:07;-3.20;99.90
5172;DHT22;2605;49.770;9.868;2022-12-18T17:08:32;-3.20;99.90
5172;DHT22;2605;49.770;9.868;2022-12-18T17:11:06;-3.20;99.90
5172;DHT22;2605;49.770;9.868;2022-12-18T17:13:35;-3.20;99.90
5172;DHT22;2605;49.770;9.868;2022-12-18T17:16:05;-3.20;99.90
5172;DHT22;2605;49.770;9.868;2022-12-18T17:18:31;-3.20;99.90
5172;DHT22;2605;49.770;9.868;2022-12-18T17:21:01;-3.20;99.90
5172;DHT22;2605;49.770;9.868;2022-12-18T17:23:27;-3.20;99.90
5172;DHT22;2605;49.770;9.868;2022-12-18T17:25:57;-3.20;99.90
5172;DHT22;2605;49.770;9.868;2022-12-18T17:28:23;-3.20;99.90
5172;DHT22;2605;49.770;9.868;2022-12-18T17:30:51;-3.20;99.90
5172;DHT22;2605;49.770;9.868;2022-12-18T17:33:16;-3.20;99.90
5172;DHT22;2605;49.770;9.868;2022-12-18T17:35:42;-3.10;99.90
5172;DHT22;2605;49.770;9.868;2022-12-18T17:38:08;-3.20;99.90
5172;DHT22;2605;49.770;9.868;2022-12-18T17:40:34;-3.10;99.90
5172;DHT22;2605;49.770;9.868;2022-12-18T17:42:59;-3.20;99.90
5172;DHT22;2605;49.770;9.868;2022-12-18T17:45:25;-3.20;99.90
5172;DHT22;2605;49.770;9.868;2022-12-18T17:47:50;-3.10;99.90
5172;DHT22;2605;49.770;9.868;2022-12-18T17:50:16;-3.10;99.90
5172;DHT22;2605;49.770;9.868;2022-12-18T17:52:41;-3.10;99.90
5172;DHT22;2605;49.770;9.868;2022-12-18T17:55:08;-3.20;99.90